createdAt,value
2019-05-28T00:00:10.473Z,90.90
2019-05-28T00:02:41.005Z,91.20
2019-05-28T00:05:11.658Z,91.50
2019-05-28T00:07:42.145Z,91.70
2019-05-28T00:10:12.905Z,92.10
2019-05-28T00:12:43.437Z,91.80
2019-05-28T00:15:14.749Z,91.80
2019-05-28T00:17:45.305Z,92.20
2019-05-28T00:20:16.149Z,92.00
2019-05-28T00:22:47.090Z,92.50
2019-05-28T00:25:19.145Z,92.30
2019-05-28T00:27:49.607Z,92.50
2019-05-28T00:30:21.323Z,92.30
2019-05-28T00:32:51.855Z,92.20
2019-05-28T00:35:22.442Z,92.00
2019-05-28T00:37:52.922Z,91.90
2019-05-28T00:40:23.743Z,91.90
2019-05-28T00:42:54.331Z,91.60
2019-05-28T00:45:26.608Z,91.80
2019-05-28T00:47:57.677Z,91.60
2019-05-28T00:50:28.175Z,91.50
2019-05-28T00:52:58.738Z,91.60
2019-05-28T00:55:29.462Z,91.60
2019-05-28T00:58:00.789Z,91.70
2019-05-28T01:00:48.788Z,91.60
2019-05-28T01:03:19.464Z,91.60
2019-05-28T01:05:51.050Z,91.60
2019-05-28T01:08:21.501Z,91.80
2019-05-28T01:10:52.018Z,91.80
2019-05-28T01:13:22.422Z,91.90
2019-05-28T01:15:52.883Z,92.10
2019-05-28T01:18:23.305Z,92.10
2019-05-28T01:20:53.994Z,92.20
2019-05-28T01:23:24.691Z,92.30
2019-05-28T01:25:55.138Z,92.50
2019-05-28T01:28:25.562Z,93.00
2019-05-28T01:31:00.563Z,92.50
2019-05-28T01:33:28.216Z,92.40
2019-05-28T01:35:58.718Z,92.60
2019-05-28T01:38:29.168Z,92.70
2019-05-28T01:40:59.731Z,92.80
2019-05-28T01:43:30.226Z,92.80
2019-05-28T01:46:00.746Z,92.90
2019-05-28T01:48:31.283Z,93.00
2019-05-28T01:51:01.828Z,92.90
2019-05-28T01:53:32.257Z,92.50
2019-05-28T01:56:02.816Z,92.50
2019-05-28T01:58:33.259Z,92.30
2019-05-28T02:01:12.864Z,92.20
2019-05-28T02:03:37.512Z,92.40
2019-05-28T02:06:08.101Z,92.40
2019-05-28T02:08:38.630Z,92.40
2019-05-28T02:11:09.075Z,92.60
2019-05-28T02:13:39.550Z,92.70
2019-05-28T02:16:10.124Z,92.80
2019-05-28T02:18:40.903Z,92.70
2019-05-28T02:21:11.810Z,93.30
2019-05-28T02:23:42.340Z,92.90
2019-05-28T02:26:19.334Z,92.80
2019-05-28T02:28:49.852Z,92.80
2019-05-28T02:31:27.721Z,92.70
2019-05-28T02:33:52.660Z,92.70
2019-05-28T02:36:23.111Z,92.80
2019-05-28T02:38:53.535Z,92.90
2019-05-28T02:41:24.010Z,92.90
2019-05-28T02:43:54.529Z,92.90
2019-05-28T02:46:24.938Z,93.00
2019-05-28T02:48:55.439Z,93.50
2019-05-28T02:51:26.953Z,93.00
2019-05-28T02:53:57.334Z,93.00
2019-05-28T02:56:31.404Z,93.20
2019-05-28T02:59:03.063Z,93.00
2019-05-28T03:01:44.209Z,93.20
2019-05-28T03:04:10.657Z,93.20
2019-05-28T03:06:44.420Z,93.10
2019-05-28T03:09:15.007Z,93.20
2019-05-28T03:11:45.448Z,93.10
2019-05-28T03:14:15.891Z,93.00
2019-05-28T03:16:48.991Z,93.10
2019-05-28T03:19:20.012Z,93.30
2019-05-28T03:21:51.936Z,93.10
2019-05-28T03:24:23.958Z,93.00
2019-05-28T03:26:54.380Z,92.90
2019-05-28T03:29:24.881Z,93.10
2019-05-28T03:32:10.669Z,92.90
2019-05-28T03:34:27.609Z,93.10
2019-05-28T03:36:59.036Z,93.10
2019-05-28T03:39:30.377Z,93.60
2019-05-28T03:42:00.801Z,93.30
2019-05-28T03:44:31.278Z,93.40
2019-05-28T03:47:01.726Z,93.40
2019-05-28T03:49:32.176Z,93.60
2019-05-28T03:52:02.599Z,93.80
2019-05-28T03:54:33.166Z,94.30
2019-05-28T03:57:03.695Z,94.10
2019-05-28T03:59:34.135Z,94.20
2019-05-28T04:02:04.639Z,94.00
2019-05-28T04:04:35.046Z,94.20
2019-05-28T04:07:05.482Z,94.80
2019-05-28T04:09:36.035Z,94.30
2019-05-28T04:12:06.530Z,95.40
2019-05-28T04:14:37.033Z,94.80
2019-05-28T04:17:07.662Z,95.40
2019-05-28T04:19:38.126Z,95.50
2019-05-28T04:22:08.649Z,95.80
2019-05-28T04:24:39.089Z,96.60
2019-05-28T04:27:09.632Z,96.40
2019-05-28T04:29:40.084Z,96.30
2019-05-28T04:32:10.561Z,96.30
2019-05-28T04:34:40.992Z,96.70
2019-05-28T04:37:12.323Z,96.50
2019-05-28T04:39:42.796Z,97.00
2019-05-28T04:42:13.265Z,97.10
2019-05-28T04:44:45.376Z,97.20
2019-05-28T04:47:15.900Z,96.60
2019-05-28T04:49:46.390Z,96.90
2019-05-28T04:52:16.977Z,96.90
2019-05-28T04:54:48.553Z,97.60
2019-05-28T04:57:19.062Z,97.50
2019-05-28T04:59:49.505Z,97.40
2019-05-28T05:02:19.937Z,97.90
2019-05-28T05:04:50.386Z,97.70
2019-05-28T05:07:20.781Z,97.10
2019-05-28T05:09:51.256Z,97.00
2019-05-28T05:12:21.775Z,97.30
2019-05-28T05:14:52.243Z,97.70
2019-05-28T05:17:22.900Z,97.50
2019-05-28T05:19:53.501Z,97.80
2019-05-28T05:22:24.130Z,97.70
2019-05-28T05:24:54.520Z,97.90
2019-05-28T05:27:25.084Z,98.10
2019-05-28T05:29:55.632Z,98.30
2019-05-28T05:32:27.879Z,98.60
2019-05-28T05:34:58.493Z,98.70
2019-05-28T05:37:28.942Z,98.60
2019-05-28T05:39:59.460Z,98.80
2019-05-28T05:42:30.078Z,98.80
2019-05-28T05:45:00.922Z,98.40
2019-05-28T05:47:31.743Z,98.30
2019-05-28T05:50:02.326Z,98.30
2019-05-28T05:52:32.842Z,98.70
2019-05-28T05:55:03.284Z,98.10
2019-05-28T05:57:33.770Z,98.50
2019-05-28T06:00:04.909Z,98.90
2019-05-28T06:02:35.405Z,99.00
2019-05-28T06:05:06.238Z,98.00
2019-05-28T06:07:36.741Z,98.10
2019-05-28T06:10:08.506Z,97.10
2019-05-28T06:12:39.012Z,97.60
2019-05-28T06:15:09.537Z,97.00
2019-05-28T06:17:40.048Z,96.80
2019-05-28T06:20:11.673Z,96.80
2019-05-28T06:22:42.194Z,96.90
2019-05-28T06:25:13.010Z,96.70
2019-05-28T06:27:43.691Z,97.80
2019-05-28T06:30:14.868Z,98.40
2019-05-28T06:32:45.317Z,98.50
2019-05-28T06:35:15.969Z,98.00
2019-05-28T06:37:46.403Z,98.00
2019-05-28T06:40:17.479Z,98.40
2019-05-28T06:42:47.951Z,98.60
2019-05-28T06:45:18.581Z,98.10
2019-05-28T06:47:49.019Z,98.20
2019-05-28T06:50:20.435Z,98.90
2019-05-28T06:52:50.996Z,99.30
2019-05-28T06:55:21.448Z,99.30
2019-05-28T06:57:52.036Z,99.20
2019-05-28T07:00:23.280Z,99.40
2019-05-28T07:02:53.788Z,99.20
2019-05-28T07:05:24.258Z,99.30
2019-05-28T07:07:55.009Z,99.60
2019-05-28T07:10:26.785Z,99.40
2019-05-28T07:12:57.214Z,99.70
2019-05-28T07:15:27.671Z,99.20
2019-05-28T07:17:59.719Z,98.90
2019-05-28T07:20:30.331Z,99.30
2019-05-28T07:23:00.839Z,99.50
2019-05-28T07:25:31.332Z,99.50
2019-05-28T07:28:10.932Z,99.50
2019-05-28T07:30:34.158Z,99.30
2019-05-28T07:33:04.856Z,99.40
2019-05-28T07:35:45.434Z,98.90
2019-05-28T07:38:07.854Z,99.10
2019-05-28T07:40:38.383Z,98.80
2019-05-28T07:43:08.940Z,98.40
2019-05-28T07:45:39.721Z,98.90
2019-05-28T07:48:10.223Z,99.10
2019-05-28T07:50:40.832Z,99.20
2019-05-28T07:53:11.320Z,99.60
2019-05-28T07:55:42.036Z,99.30
2019-05-28T07:58:12.896Z,99.10
2019-05-28T08:00:44.893Z,99.30
2019-05-28T08:03:15.347Z,99.60
2019-05-28T08:05:45.920Z,99.20
2019-05-28T08:08:20.503Z,98.80
2019-05-28T08:10:50.952Z,99.20
2019-05-28T08:13:21.532Z,99.30
2019-05-28T08:15:52.122Z,99.20
2019-05-28T08:18:22.577Z,99.00
2019-05-28T08:21:12.096Z,99.30
2019-05-28T08:23:42.529Z,98.80
2019-05-28T08:26:13.169Z,99.30
2019-05-28T08:28:43.659Z,99.30
2019-05-28T08:31:18.683Z,99.80
2019-05-28T08:33:46.753Z,99.30
2019-05-28T08:36:17.220Z,99.20
2019-05-28T08:38:47.732Z,99.60
2019-05-28T08:41:18.216Z,98.80
2019-05-28T08:43:48.919Z,99.20
2019-05-28T08:46:19.765Z,99.30
2019-05-28T08:48:50.257Z,99.00
2019-05-28T08:51:20.714Z,99.10
2019-05-28T08:53:51.137Z,98.70
2019-05-28T08:56:21.804Z,99.10
2019-05-28T08:58:52.267Z,98.80
2019-05-28T09:01:22.804Z,98.90
2019-05-28T09:03:53.239Z,98.70
2019-05-28T09:06:27.122Z,98.80
2019-05-28T09:08:55.836Z,98.90
2019-05-28T09:11:26.285Z,98.40
2019-05-28T09:13:56.821Z,98.10
2019-05-28T09:16:27.543Z,98.20
2019-05-28T09:18:58.194Z,97.80
2019-05-28T09:21:28.666Z,98.20
2019-05-28T09:23:59.302Z,98.30
2019-05-28T09:26:29.831Z,98.20
2019-05-28T09:29:00.370Z,98.10
2019-05-28T09:31:30.819Z,98.30
2019-05-28T09:34:01.317Z,98.40
2019-05-28T09:36:32.407Z,98.00
2019-05-28T09:39:02.934Z,98.50
2019-05-28T09:41:33.496Z,97.70
2019-05-28T09:44:04.102Z,97.90
2019-05-28T09:46:34.809Z,97.90
2019-05-28T09:49:05.259Z,98.30
2019-05-28T09:51:35.800Z,98.00
2019-05-28T09:54:06.333Z,97.80
2019-05-28T09:56:36.792Z,98.10
2019-05-28T09:59:07.289Z,97.60
2019-05-28T10:01:37.985Z,97.30
2019-05-28T10:04:08.500Z,97.00
2019-05-28T10:06:41.693Z,96.90
2019-05-28T10:09:11.243Z,96.50
2019-05-28T10:11:41.841Z,96.70
2019-05-28T10:14:12.318Z,96.30
2019-05-28T10:16:43.009Z,96.50
2019-05-28T10:19:13.608Z,96.90
2019-05-28T10:21:44.194Z,97.00
2019-05-28T10:24:14.890Z,96.40
2019-05-28T10:26:45.383Z,96.70
2019-05-28T10:29:15.880Z,96.30
2019-05-28T10:31:47.501Z,96.00
2019-05-28T10:34:18.073Z,95.70
2019-05-28T10:36:48.593Z,95.50
2019-05-28T10:39:19.084Z,95.80
2019-05-28T10:41:49.876Z,95.30
2019-05-28T10:44:20.477Z,95.60
2019-05-28T10:46:50.983Z,95.70
2019-05-28T10:49:21.434Z,94.90
2019-05-28T10:51:52.007Z,95.50
2019-05-28T10:54:22.507Z,95.70
2019-05-28T10:56:53.075Z,96.00
2019-05-28T10:59:23.544Z,96.10
2019-05-28T11:01:54.230Z,96.00
2019-05-28T11:04:24.879Z,96.40
2019-05-28T11:06:55.955Z,95.20
2019-05-28T11:09:26.917Z,95.60
2019-05-28T11:11:57.961Z,95.00
2019-05-28T11:14:28.433Z,95.10
2019-05-28T11:16:58.883Z,94.80
2019-05-28T11:19:30.529Z,94.80
2019-05-28T11:22:01.274Z,94.10
2019-05-28T11:24:31.834Z,93.70
2019-05-28T11:27:02.385Z,93.80
2019-05-28T11:29:32.869Z,93.30
2019-05-28T11:32:03.688Z,92.10
2019-05-28T11:34:34.780Z,92.40
2019-05-28T11:37:09.691Z,90.30
2019-05-28T11:39:37.507Z,91.40
2019-05-28T11:42:07.950Z,90.10
2019-05-28T11:44:38.410Z,90.90
2019-05-28T11:47:08.822Z,90.10
2019-05-28T11:49:39.300Z,90.10
2019-05-28T11:52:09.857Z,87.70
2019-05-28T11:54:40.591Z,89.40
2019-05-28T11:57:11.042Z,83.80
2019-05-28T11:59:41.506Z,85.10
2019-05-28T12:02:12.017Z,85.40
2019-05-28T12:04:42.642Z,86.50
2019-05-28T12:07:25.478Z,85.20
2019-05-28T12:09:45.391Z,87.80
2019-05-28T12:12:15.855Z,86.90
2019-05-28T12:14:46.315Z,85.50
2019-05-28T12:17:16.765Z,84.30
2019-05-28T12:19:47.554Z,84.80
2019-05-28T12:22:18.037Z,84.00
2019-05-28T12:24:48.573Z,85.00
2019-05-28T12:27:19.362Z,81.50
2019-05-28T12:29:52.128Z,79.40
2019-05-28T12:32:22.197Z,76.00
2019-05-28T12:34:52.812Z,77.00
2019-05-28T12:37:23.374Z,76.60
2019-05-28T12:39:53.933Z,78.00
2019-05-28T12:42:24.455Z,76.60
2019-05-28T12:45:08.837Z,75.00
2019-05-28T12:47:27.312Z,74.40
2019-05-28T12:50:17.256Z,74.70
2019-05-28T12:52:29.948Z,70.80
2019-05-28T12:55:00.482Z,71.40
2019-05-28T12:57:30.976Z,69.50
2019-05-28T13:00:01.593Z,69.00
2019-05-28T13:02:32.152Z,66.90
2019-05-28T13:05:11.322Z,68.10
2019-05-28T13:07:41.867Z,68.00
2019-05-28T13:10:14.094Z,68.00
2019-05-28T13:12:44.995Z,70.00
2019-05-28T13:15:15.930Z,71.70
2019-05-28T13:17:46.701Z,69.80
2019-05-28T13:20:19.332Z,70.10
2019-05-28T13:22:49.745Z,70.40
2019-05-28T13:25:20.938Z,70.30
2019-05-28T13:27:51.420Z,70.80
2019-05-28T13:30:22.488Z,70.40
2019-05-28T13:32:53.395Z,72.40
2019-05-28T13:35:24.292Z,69.60
2019-05-28T13:37:54.807Z,68.40
2019-05-28T13:40:25.760Z,67.10
2019-05-28T13:42:56.269Z,63.10
2019-05-28T13:45:26.717Z,61.70
2019-05-28T13:47:58.829Z,63.20
2019-05-28T13:50:29.937Z,63.50
2019-05-28T13:53:00.371Z,64.20
2019-05-28T13:55:30.889Z,65.00
2019-05-28T13:58:01.312Z,63.20
2019-05-28T14:00:32.369Z,63.40
2019-05-28T14:03:03.208Z,65.50
2019-05-28T14:05:34.099Z,66.00
2019-05-28T14:08:04.696Z,64.50
2019-05-28T14:10:35.243Z,62.90
2019-05-28T14:13:05.931Z,63.30
2019-05-28T14:15:36.563Z,59.00
2019-05-28T14:18:08.250Z,58.10
2019-05-28T14:20:38.735Z,57.40
2019-05-28T14:23:09.372Z,56.30
2019-05-28T14:25:39.873Z,56.70
2019-05-28T14:28:10.357Z,58.40
2019-05-28T14:30:56.456Z,58.70
2019-05-28T14:33:13.007Z,58.60
2019-05-28T14:35:43.567Z,57.10
2019-05-28T14:38:14.165Z,58.20
2019-05-28T14:40:45.074Z,55.90
2019-05-28T14:43:15.825Z,56.10
2019-05-28T14:45:46.460Z,55.60
2019-05-28T14:48:17.224Z,55.00
2019-05-28T14:50:47.745Z,55.00
2019-05-28T14:53:18.327Z,55.70
2019-05-28T14:55:48.848Z,53.80
2019-05-28T14:58:19.343Z,55.10
2019-05-28T15:00:50.058Z,53.60
2019-05-28T15:03:20.606Z,54.20
2019-05-28T15:05:51.114Z,54.20
2019-05-28T15:08:21.638Z,53.80
2019-05-28T15:10:53.085Z,54.20
2019-05-28T15:13:23.691Z,53.60
2019-05-28T15:15:54.399Z,53.40
2019-05-28T15:18:24.977Z,53.50
2019-05-28T15:20:55.484Z,54.20
2019-05-28T15:23:26.246Z,54.80
2019-05-28T15:25:56.742Z,55.70
2019-05-28T15:28:27.554Z,56.30
2019-05-28T15:30:58.066Z,56.90
2019-05-28T15:33:28.521Z,55.10
2019-05-28T15:35:59.017Z,55.70
2019-05-28T15:38:29.671Z,55.70
2019-05-28T15:41:00.222Z,56.00
2019-05-28T15:43:30.780Z,55.70
2019-05-28T15:46:01.236Z,56.30
2019-05-28T15:48:31.649Z,56.70
2019-05-28T15:51:02.151Z,57.60
2019-05-28T15:53:32.635Z,58.40
2019-05-28T15:56:03.163Z,57.20
2019-05-28T15:58:33.603Z,58.60
2019-05-28T16:01:04.111Z,59.10
2019-05-28T16:03:34.585Z,59.20
2019-05-28T16:06:05.186Z,59.30
2019-05-28T16:08:57.014Z,58.60
2019-05-28T16:11:29.099Z,59.10
2019-05-28T16:13:59.606Z,57.40
2019-05-28T16:16:30.140Z,57.40
2019-05-28T16:19:00.939Z,58.40
2019-05-28T16:21:31.447Z,59.30
2019-05-28T16:24:02.107Z,59.70
2019-05-28T16:26:33.091Z,58.60
2019-05-28T16:29:03.862Z,58.80
2019-05-28T16:31:34.442Z,58.80
2019-05-28T16:34:05.073Z,59.00
2019-05-28T16:36:35.599Z,59.60
2019-05-28T16:39:09.188Z,59.10
2019-05-28T16:41:40.046Z,59.00
2019-05-28T16:44:10.627Z,58.20
2019-05-28T16:46:41.169Z,58.90
2019-05-28T16:49:11.676Z,58.50
2019-05-28T16:51:42.848Z,59.80
2019-05-28T16:54:19.140Z,59.50
2019-05-28T16:56:46.453Z,60.30
2019-05-28T16:59:17.155Z,59.60
2019-05-28T17:01:47.917Z,60.10
2019-05-28T17:04:18.411Z,60.30
2019-05-28T17:06:48.912Z,61.20
2019-05-28T17:09:19.509Z,61.30
2019-05-28T17:11:50.033Z,60.20
2019-05-28T17:14:20.721Z,60.50
2019-05-28T17:16:51.184Z,60.50
2019-05-28T17:19:21.931Z,60.50
2019-05-28T17:21:52.513Z,59.50
2019-05-28T17:24:23.295Z,59.80
2019-05-28T17:26:54.056Z,59.80
2019-05-28T17:29:24.580Z,59.80
2019-05-28T17:31:55.503Z,59.00
2019-05-28T17:34:26.096Z,58.60
2019-05-28T17:36:56.588Z,58.40
2019-05-28T17:39:27.262Z,59.50
2019-05-28T17:41:58.393Z,59.50
2019-05-28T17:44:29.111Z,59.30
2019-05-28T17:47:02.471Z,59.50
2019-05-28T17:49:33.077Z,59.40
2019-05-28T17:52:03.782Z,58.90
2019-05-28T17:54:34.275Z,58.70
2019-05-28T17:57:05.229Z,59.00
2019-05-28T17:59:35.757Z,59.00
2019-05-28T18:02:06.705Z,58.40
2019-05-28T18:04:37.265Z,58.10
2019-05-28T18:07:07.737Z,57.90
2019-05-28T18:09:38.424Z,57.80
2019-05-28T18:12:09.109Z,58.30
2019-05-28T18:14:40.576Z,58.00
2019-05-28T18:17:11.162Z,57.80
2019-05-28T18:19:41.758Z,59.10
2019-05-28T18:22:12.279Z,58.50
2019-05-28T18:24:42.832Z,59.30
2019-05-28T18:27:13.941Z,59.50
2019-05-28T18:29:44.615Z,59.60
2019-05-28T18:32:15.169Z,60.60
2019-05-28T18:34:45.744Z,60.80
2019-05-28T18:37:16.363Z,61.00
2019-05-28T18:39:46.956Z,60.70
2019-05-28T18:42:17.484Z,61.60
2019-05-28T18:44:48.030Z,59.60
2019-05-28T18:47:18.561Z,60.20
2019-05-28T18:49:49.203Z,60.60
2019-05-28T18:52:19.775Z,59.90
2019-05-28T18:54:50.290Z,60.50
2019-05-28T18:57:20.923Z,60.80
2019-05-28T18:59:51.476Z,60.40
2019-05-28T19:02:26.993Z,59.10
2019-05-28T19:04:57.529Z,58.50
2019-05-28T19:07:27.997Z,58.80
2019-05-28T19:09:58.640Z,58.90
2019-05-28T19:12:29.134Z,59.30
2019-05-28T19:14:59.761Z,59.30
2019-05-28T19:17:30.366Z,59.30
2019-05-28T19:20:00.897Z,59.50
2019-05-28T19:22:31.466Z,59.90
2019-05-28T19:25:03.171Z,60.40
2019-05-28T19:27:35.614Z,61.10
2019-05-28T19:30:07.691Z,61.80
2019-05-28T19:32:38.487Z,61.80
2019-05-28T19:35:11.088Z,61.80
2019-05-28T19:37:42.655Z,61.70
2019-05-28T19:40:14.776Z,62.40
2019-05-28T19:42:45.455Z,62.70
2019-05-28T19:45:16.564Z,62.90
2019-05-28T19:47:47.058Z,63.40
2019-05-28T19:50:18.846Z,63.60
2019-05-28T19:52:51.998Z,64.00
2019-05-28T19:55:22.826Z,64.30
2019-05-28T19:57:53.719Z,65.00
2019-05-28T20:00:24.485Z,65.40
2019-05-28T20:02:57.049Z,65.70
2019-05-28T20:05:29.651Z,65.70
2019-05-28T20:08:00.700Z,66.30
2019-05-28T20:10:50.954Z,66.00
2019-05-28T20:13:21.682Z,66.40
2019-05-28T20:15:52.776Z,67.20
2019-05-28T20:19:25.559Z,66.80
2019-05-28T20:21:56.919Z,67.20
2019-05-28T20:24:27.850Z,67.80
2019-05-28T20:26:58.689Z,68.60
2019-05-28T20:29:29.308Z,69.10
2019-05-28T20:32:01.139Z,69.20
2019-05-28T20:34:37.511Z,69.40
2019-05-28T20:37:10.079Z,69.80
2019-05-28T20:39:41.757Z,70.20
2019-05-28T20:42:26.762Z,70.20
2019-05-28T20:44:56.194Z,70.50
2019-05-28T20:47:35.474Z,71.00
2019-05-28T20:50:07.593Z,71.40
2019-05-28T20:52:38.423Z,71.50
2019-05-28T20:55:12.394Z,71.50
2019-05-28T20:57:44.048Z,72.20
2019-05-28T21:00:16.155Z,71.70
2019-05-28T21:02:51.603Z,72.20
2019-05-28T21:05:22.354Z,72.40
2019-05-28T21:07:54.653Z,72.00
2019-05-28T21:10:25.658Z,71.60
2019-05-28T21:12:56.931Z,72.10
2019-05-28T21:15:28.018Z,72.30
2019-05-28T21:17:59.530Z,72.40
2019-05-28T21:20:30.657Z,72.40
2019-05-28T21:23:01.769Z,72.70
2019-05-28T21:25:32.824Z,72.50
2019-05-28T21:28:06.505Z,72.50
2019-05-28T21:30:37.362Z,73.50
2019-05-28T21:33:08.725Z,73.50
2019-05-28T21:35:39.735Z,73.60
2019-05-28T21:38:10.322Z,73.40
2019-05-28T21:40:41.039Z,73.30
2019-05-28T21:43:51.735Z,73.20
2019-05-28T21:46:25.242Z,73.40
2019-05-28T21:48:56.546Z,72.90
2019-05-28T21:51:29.865Z,73.50
2019-05-28T21:54:01.465Z,73.40
2019-05-28T21:56:32.353Z,73.80
2019-05-28T21:59:03.797Z,73.80
2019-05-28T22:01:37.224Z,74.00
2019-05-28T22:04:07.832Z,74.80
2019-05-28T22:06:38.317Z,73.90
2019-05-28T22:09:09.236Z,73.70
2019-05-28T22:11:39.719Z,73.90
2019-05-28T22:14:10.369Z,73.90
2019-05-28T22:16:41.268Z,73.70
2019-05-28T22:19:11.761Z,74.00
2019-05-28T22:21:42.288Z,74.40
2019-05-28T22:24:12.779Z,74.80
2019-05-28T22:26:43.289Z,74.30
2019-05-28T22:29:13.912Z,75.00
2019-05-28T22:31:44.552Z,74.30
2019-05-28T22:34:15.112Z,74.20
2019-05-28T22:36:45.607Z,74.80
2019-05-28T22:39:16.277Z,74.90
2019-05-28T22:41:46.724Z,75.60
2019-05-28T22:44:17.147Z,76.00
2019-05-28T22:46:47.658Z,76.90
2019-05-28T22:49:18.723Z,76.80
2019-05-28T22:51:49.196Z,76.30
2019-05-28T22:54:19.725Z,77.00
2019-05-28T22:56:50.174Z,77.40
2019-05-28T22:59:20.811Z,78.10
2019-05-28T23:01:51.525Z,78.30
2019-05-28T23:04:21.992Z,78.70
2019-05-28T23:06:52.412Z,78.80
2019-05-28T23:09:22.962Z,79.50
2019-05-28T23:11:53.431Z,79.60
2019-05-28T23:14:23.972Z,80.40
2019-05-28T23:16:54.454Z,80.30
2019-05-28T23:19:24.957Z,80.30
2019-05-28T23:21:55.471Z,80.70
2019-05-28T23:24:25.918Z,80.30
2019-05-28T23:26:56.394Z,81.00
2019-05-28T23:29:26.838Z,82.10
2019-05-28T23:31:57.370Z,81.40
2019-05-28T23:34:27.921Z,81.20
2019-05-28T23:36:58.388Z,81.90
2019-05-28T23:39:28.876Z,81.70
2019-05-28T23:41:59.362Z,81.70
2019-05-28T23:44:29.856Z,82.00
2019-05-28T23:47:00.285Z,81.60
2019-05-28T23:49:30.768Z,82.10
2019-05-28T23:52:01.309Z,81.80
2019-05-28T23:54:31.872Z,82.00
2019-05-28T23:57:02.449Z,81.60
2019-05-28T23:59:33.057Z,81.60
